sensor_id;sensor_type;location;lat;lon;timestamp;P1;durP1;ratioP1;P2;durP2;ratioP2
76667;SDS011;65585;51.166;16.922;2023-08-08T00:01:44;5.50;;;2.20;;
76667;SDS011;65585;51.166;16.922;2023-08-08T00:04:10;8.98;;;2.83;;
76667;SDS011;65585;51.166;16.922;2023-08-08T00:06:37;3.65;;;1.92;;
76667;SDS011;65585;51.166;16.922;2023-08-08T00:09:03;3.38;;;1.95;;
76667;SDS011;65585;51.166;16.922;2023-08-08T00:11:30;5.05;;;2.60;;
76667;SDS011;65585;51.166;16.922;2023-08-08T00:13:56;5.03;;;2.28;;
76667;SDS011;65585;51.166;16.922;2023-08-08T00:16:22;5.53;;;2.35;;
76667;SDS011;65585;51.166;16.922;2023-08-08T00:18:48;4.28;;;2.15;;
76667;SDS011;65585;51.166;16.922;2023-08-08T00:21:20;2.92;;;2.20;;
76667;SDS011;65585;51.166;16.922;2023-08-08T00:23:45;5.10;;;2.28;;
76667;SDS011;65585;51.166;16.922;2023-08-08T00:26:12;5.13;;;2.40;;
76667;SDS011;65585;51.166;16.922;2023-08-08T00:28:38;5.90;;;2.35;;
76667;SDS011;65585;51.166;16.922;2023-08-08T00:31:05;5.35;;;1.90;;
76667;SDS011;65585;51.166;16.922;2023-08-08T00:33:31;3.30;;;2.13;;
76667;SDS011;65585;51.166;16.922;2023-08-08T00:35:57;4.85;;;2.35;;
76667;SDS011;65585;51.166;16.922;2023-08-08T00:38:23;4.10;;;2.10;;
76667;SDS011;65585;51.166;16.922;2023-08-08T00:40:50;4.10;;;2.22;;
76667;SDS011;65585;51.166;16.922;2023-08-08T00:43:15;3.75;;;2.35;;
76667;SDS011;65585;51.166;16.922;2023-08-08T00:45:42;4.00;;;2.00;;
76667;SDS011;65585;51.166;16.922;2023-08-08T00:48:08;5.72;;;2.15;;
76667;SDS011;65585;51.166;16.922;2023-08-08T00:50:35;2.90;;;2.10;;
76667;SDS011;65585;51.166;16.922;2023-08-08T00:53:01;4.15;;;1.90;;
76667;SDS011;65585;51.166;16.922;2023-08-08T00:55:28;5.07;;;1.77;;
76667;SDS011;65585;51.166;16.922;2023-08-08T00:57:54;3.17;;;2.13;;
76667;SDS011;65585;51.166;16.922;2023-08-08T01:00:21;5.38;;;2.15;;
76667;SDS011;65585;51.166;16.922;2023-08-08T01:02:47;7.22;;;2.33;;
76667;SDS011;65585;51.166;16.922;2023-08-08T01:05:13;3.58;;;2.17;;
76667;SDS011;65585;51.166;16.922;2023-08-08T01:10:10;4.18;;;2.40;;
76667;SDS011;65585;51.166;16.922;2023-08-08T01:12:41;4.35;;;1.88;;
76667;SDS011;65585;51.166;16.922;2023-08-08T01:15:09;5.40;;;2.10;;
76667;SDS011;65585;51.166;16.922;2023-08-08T01:17:35;3.65;;;2.28;;
76667;SDS011;65585;51.166;16.922;2023-08-08T01:20:03;4.00;;;2.28;;
76667;SDS011;65585;51.166;16.922;2023-08-08T01:22:32;4.68;;;2.10;;
76667;SDS011;65585;51.166;16.922;2023-08-08T01:25:01;7.38;;;2.30;;
76667;SDS011;65585;51.166;16.922;2023-08-08T01:27:28;3.78;;;2.10;;
76667;SDS011;65585;51.166;16.922;2023-08-08T01:29:55;6.20;;;2.33;;
76667;SDS011;65585;51.166;16.922;2023-08-08T01:32:20;5.95;;;2.30;;
76667;SDS011;65585;51.166;16.922;2023-08-08T01:34:47;4.10;;;2.13;;
76667;SDS011;65585;51.166;16.922;2023-08-08T01:39:39;6.35;;;2.55;;
76667;SDS011;65585;51.166;16.922;2023-08-08T01:42:06;3.58;;;2.08;;
76667;SDS011;65585;51.166;16.922;2023-08-08T01:44:32;4.38;;;2.13;;
76667;SDS011;65585;51.166;16.922;2023-08-08T01:51:51;3.92;;;2.10;;
76667;SDS011;65585;51.166;16.922;2023-08-08T01:54:18;5.07;;;1.90;;
76667;SDS011;65585;51.166;16.922;2023-08-08T01:56:44;4.35;;;2.30;;
76667;SDS011;65585;51.166;16.922;2023-08-08T01:59:10;4.28;;;2.40;;
76667;SDS011;65585;51.166;16.922;2023-08-08T02:01:36;4.32;;;2.30;;
76667;SDS011;65585;51.166;16.922;2023-08-08T02:04:02;0.22;;;0.22;;
76667;SDS011;65585;51.166;16.922;2023-08-08T02:06:28;2.58;;;1.40;;
76667;SDS011;65585;51.166;16.922;2023-08-08T02:08:55;4.47;;;2.53;;
76667;SDS011;65585;51.166;16.922;2023-08-08T02:11:21;3.17;;;2.30;;
76667;SDS011;65585;51.166;16.922;2023-08-08T02:13:47;3.30;;;2.30;;
76667;SDS011;65585;51.166;16.922;2023-08-08T02:16:14;12.48;;;2.63;;
76667;SDS011;65585;51.166;16.922;2023-08-08T02:18:40;5.57;;;2.28;;
76667;SDS011;65585;51.166;16.922;2023-08-08T02:21:07;3.47;;;2.05;;
76667;SDS011;65585;51.166;16.922;2023-08-08T02:23:34;4.88;;;2.58;;
76667;SDS011;65585;51.166;16.922;2023-08-08T02:26:00;3.28;;;2.17;;
76667;SDS011;65585;51.166;16.922;2023-08-08T02:28:26;3.55;;;2.38;;
76667;SDS011;65585;51.166;16.922;2023-08-08T02:30:52;6.32;;;2.05;;
76667;SDS011;65585;51.166;16.922;2023-08-08T02:33:19;4.47;;;2.03;;
76667;SDS011;65585;51.166;16.922;2023-08-08T02:35:44;4.30;;;2.40;;
76667;SDS011;65585;51.166;16.922;2023-08-08T02:38:11;4.07;;;2.67;;
76667;SDS011;65585;51.166;16.922;2023-08-08T02:40:37;2.95;;;1.90;;
76667;SDS011;65585;51.166;16.922;2023-08-08T02:43:04;9.40;;;2.58;;
76667;SDS011;65585;51.166;16.922;2023-08-08T02:45:30;4.03;;;2.35;;
76667;SDS011;65585;51.166;16.922;2023-08-08T02:47:56;3.42;;;2.30;;
76667;SDS011;65585;51.166;16.922;2023-08-08T02:50:22;5.45;;;2.58;;
76667;SDS011;65585;51.166;16.922;2023-08-08T02:52:49;4.60;;;2.40;;
76667;SDS011;65585;51.166;16.922;2023-08-08T02:55:15;3.80;;;2.40;;
76667;SDS011;65585;51.166;16.922;2023-08-08T02:57:41;5.13;;;2.20;;
76667;SDS011;65585;51.166;16.922;2023-08-08T03:00:07;4.00;;;2.63;;
76667;SDS011;65585;51.166;16.922;2023-08-08T03:02:34;5.75;;;2.20;;
76667;SDS011;65585;51.166;16.922;2023-08-08T03:04:59;7.82;;;2.67;;
76667;SDS011;65585;51.166;16.922;2023-08-08T03:07:26;3.83;;;1.80;;
76667;SDS011;65585;51.166;16.922;2023-08-08T03:09:51;3.05;;;2.13;;
76667;SDS011;65585;51.166;16.922;2023-08-08T03:12:17;6.03;;;2.17;;
76667;SDS011;65585;51.166;16.922;2023-08-08T03:14:43;3.50;;;2.17;;
76667;SDS011;65585;51.166;16.922;2023-08-08T03:17:09;7.75;;;2.70;;
76667;SDS011;65585;51.166;16.922;2023-08-08T03:19:35;3.55;;;2.30;;
76667;SDS011;65585;51.166;16.922;2023-08-08T03:22:01;3.78;;;2.00;;
76667;SDS011;65585;51.166;16.922;2023-08-08T03:24:30;5.22;;;2.80;;
76667;SDS011;65585;51.166;16.922;2023-08-08T03:26:56;4.22;;;2.60;;
76667;SDS011;65585;51.166;16.922;2023-08-08T03:29:22;4.32;;;1.98;;
76667;SDS011;65585;51.166;16.922;2023-08-08T03:31:48;7.40;;;3.40;;
76667;SDS011;65585;51.166;16.922;2023-08-08T03:34:14;5.70;;;2.80;;
76667;SDS011;65585;51.166;16.922;2023-08-08T03:36:40;3.38;;;2.33;;
76667;SDS011;65585;51.166;16.922;2023-08-08T03:39:06;4.82;;;2.75;;
76667;SDS011;65585;51.166;16.922;2023-08-08T03:41:34;7.60;;;2.45;;
76667;SDS011;65585;51.166;16.922;2023-08-08T03:44:00;5.07;;;2.70;;
76667;SDS011;65585;51.166;16.922;2023-08-08T03:46:28;7.95;;;2.80;;
76667;SDS011;65585;51.166;16.922;2023-08-08T03:48:55;5.18;;;2.45;;
76667;SDS011;65585;51.166;16.922;2023-08-08T03:51:21;7.30;;;2.75;;
76667;SDS011;65585;51.166;16.922;2023-08-08T03:53:47;4.10;;;2.15;;
76667;SDS011;65585;51.166;16.922;2023-08-08T03:56:13;4.78;;;2.30;;
76667;SDS011;65585;51.166;16.922;2023-08-08T03:58:39;2.53;;;1.80;;
76667;SDS011;65585;51.166;16.922;2023-08-08T04:01:05;5.38;;;2.40;;
76667;SDS011;65585;51.166;16.922;2023-08-08T04:03:31;4.60;;;2.25;;
76667;SDS011;65585;51.166;16.922;2023-08-08T04:05:57;3.38;;;2.40;;
76667;SDS011;65585;51.166;16.922;2023-08-08T04:08:23;4.60;;;2.20;;
76667;SDS011;65585;51.166;16.922;2023-08-08T04:10:49;3.58;;;2.10;;
76667;SDS011;65585;51.166;16.922;2023-08-08T04:13:15;5.30;;;2.30;;
76667;SDS011;65585;51.166;16.922;2023-08-08T04:15:41;4.78;;;2.20;;
76667;SDS011;65585;51.166;16.922;2023-08-08T04:18:07;2.67;;;2.33;;
76667;SDS011;65585;51.166;16.922;2023-08-08T04:20:33;2.92;;;2.15;;
76667;SDS011;65585;51.166;16.922;2023-08-08T04:22:59;5.13;;;2.65;;
76667;SDS011;65585;51.166;16.922;2023-08-08T04:25:26;3.78;;;2.47;;
76667;SDS011;65585;51.166;16.922;2023-08-08T04:27:52;3.50;;;2.40;;
76667;SDS011;65585;51.166;16.922;2023-08-08T04:30:18;3.95;;;2.20;;
76667;SDS011;65585;51.166;16.922;2023-08-08T04:32:45;4.97;;;2.60;;
76667;SDS011;65585;51.166;16.922;2023-08-08T04:35:11;4.50;;;2.13;;
76667;SDS011;65585;51.166;16.922;2023-08-08T04:37:37;6.35;;;2.88;;
76667;SDS011;65585;51.166;16.922;2023-08-08T04:40:03;3.58;;;2.45;;
76667;SDS011;65585;51.166;16.922;2023-08-08T04:42:30;3.70;;;2.10;;
76667;SDS011;65585;51.166;16.922;2023-08-08T04:44:56;4.97;;;2.33;;
76667;SDS011;65585;51.166;16.922;2023-08-08T04:47:22;5.90;;;2.45;;
76667;SDS011;65585;51.166;16.922;2023-08-08T04:49:49;5.20;;;2.38;;
76667;SDS011;65585;51.166;16.922;2023-08-08T04:52:14;5.53;;;2.88;;
76667;SDS011;65585;51.166;16.922;2023-08-08T04:54:41;4.45;;;2.05;;
76667;SDS011;65585;51.166;16.922;2023-08-08T04:57:07;4.55;;;2.60;;
76667;SDS011;65585;51.166;16.922;2023-08-08T04:59:33;3.88;;;2.63;;
76667;SDS011;65585;51.166;16.922;2023-08-08T05:01:59;4.13;;;1.95;;
76667;SDS011;65585;51.166;16.922;2023-08-08T05:04:25;3.42;;;2.20;;
76667;SDS011;65585;51.166;16.922;2023-08-08T05:06:51;3.65;;;2.33;;
76667;SDS011;65585;51.166;16.922;2023-08-08T05:09:17;7.10;;;2.75;;
76667;SDS011;65585;51.166;16.922;2023-08-08T05:11:43;5.43;;;2.28;;
76667;SDS011;65585;51.166;16.922;2023-08-08T05:14:09;3.20;;;1.95;;
76667;SDS011;65585;51.166;16.922;2023-08-08T05:16:34;3.42;;;2.25;;
76667;SDS011;65585;51.166;16.922;2023-08-08T05:19:01;4.90;;;2.35;;
76667;SDS011;65585;51.166;16.922;2023-08-08T05:21:27;6.07;;;1.90;;
76667;SDS011;65585;51.166;16.922;2023-08-08T05:23:53;2.92;;;1.90;;
76667;SDS011;65585;51.166;16.922;2023-08-08T05:26:19;3.47;;;2.00;;
76667;SDS011;65585;51.166;16.922;2023-08-08T05:28:45;5.45;;;2.53;;
76667;SDS011;65585;51.166;16.922;2023-08-08T05:31:11;3.45;;;2.50;;
76667;SDS011;65585;51.166;16.922;2023-08-08T05:33:37;5.93;;;2.30;;
76667;SDS011;65585;51.166;16.922;2023-08-08T05:36:03;4.63;;;2.13;;
76667;SDS011;65585;51.166;16.922;2023-08-08T05:38:29;3.88;;;2.33;;
76667;SDS011;65585;51.166;16.922;2023-08-08T05:40:55;3.08;;;1.90;;
76667;SDS011;65585;51.166;16.922;2023-08-08T05:43:22;3.10;;;2.15;;
76667;SDS011;65585;51.166;16.922;2023-08-08T05:45:47;2.80;;;1.80;;
76667;SDS011;65585;51.166;16.922;2023-08-08T05:48:14;4.25;;;1.92;;
76667;SDS011;65585;51.166;16.922;2023-08-08T05:50:40;2.92;;;2.13;;
76667;SDS011;65585;51.166;16.922;2023-08-08T05:53:06;3.80;;;1.88;;
76667;SDS011;65585;51.166;16.922;2023-08-08T05:55:32;3.65;;;2.15;;
76667;SDS011;65585;51.166;16.922;2023-08-08T05:57:59;3.13;;;2.20;;
76667;SDS011;65585;51.166;16.922;2023-08-08T06:00:25;4.00;;;2.10;;
76667;SDS011;65585;51.166;16.922;2023-08-08T06:02:52;4.55;;;1.80;;
76667;SDS011;65585;51.166;16.922;2023-08-08T06:05:17;4.25;;;2.10;;
76667;SDS011;65585;51.166;16.922;2023-08-08T06:07:45;3.03;;;2.17;;
76667;SDS011;65585;51.166;16.922;2023-08-08T06:10:11;4.15;;;2.10;;
76667;SDS011;65585;51.166;16.922;2023-08-08T06:12:37;3.88;;;2.15;;
76667;SDS011;65585;51.166;16.922;2023-08-08T06:15:03;4.88;;;2.45;;
76667;SDS011;65585;51.166;16.922;2023-08-08T06:17:29;5.43;;;2.45;;
76667;SDS011;65585;51.166;16.922;2023-08-08T06:19:55;2.60;;;2.00;;
76667;SDS011;65585;51.166;16.922;2023-08-08T06:22:23;4.85;;;2.30;;
76667;SDS011;65585;51.166;16.922;2023-08-08T06:24:49;4.47;;;2.15;;
76667;SDS011;65585;51.166;16.922;2023-08-08T06:27:15;3.80;;;2.33;;
76667;SDS011;65585;51.166;16.922;2023-08-08T06:29:41;4.03;;;2.10;;
76667;SDS011;65585;51.166;16.922;2023-08-08T06:32:07;6.60;;;2.30;;
76667;SDS011;65585;51.166;16.922;2023-08-08T06:34:33;3.15;;;2.10;;
76667;SDS011;65585;51.166;16.922;2023-08-08T06:36:59;3.58;;;1.80;;
76667;SDS011;65585;51.166;16.922;2023-08-08T06:39:25;2.95;;;1.85;;
76667;SDS011;65585;51.166;16.922;2023-08-08T06:41:51;5.20;;;2.10;;
76667;SDS011;65585;51.166;16.922;2023-08-08T06:44:18;3.72;;;1.70;;
76667;SDS011;65585;51.166;16.922;2023-08-08T06:46:45;2.92;;;2.30;;
76667;SDS011;65585;51.166;16.922;2023-08-08T06:49:11;6.30;;;2.20;;
76667;SDS011;65585;51.166;16.922;2023-08-08T06:51:37;3.28;;;1.90;;
76667;SDS011;65585;51.166;16.922;2023-08-08T06:54:03;3.22;;;1.60;;
76667;SDS011;65585;51.166;16.922;2023-08-08T06:56:30;3.20;;;1.70;;
76667;SDS011;65585;51.166;16.922;2023-08-08T06:58:56;2.55;;;1.50;;
76667;SDS011;65585;51.166;16.922;2023-08-08T07:01:22;3.80;;;1.67;;
76667;SDS011;65585;51.166;16.922;2023-08-08T07:03:48;4.65;;;2.00;;
76667;SDS011;65585;51.166;16.922;2023-08-08T07:06:17;3.25;;;1.70;;
76667;SDS011;65585;51.166;16.922;2023-08-08T07:08:42;5.22;;;1.70;;
76667;SDS011;65585;51.166;16.922;2023-08-08T07:11:09;2.78;;;1.77;;
76667;SDS011;65585;51.166;16.922;2023-08-08T07:13:36;4.38;;;1.90;;
76667;SDS011;65585;51.166;16.922;2023-08-08T07:16:02;2.10;;;1.55;;
76667;SDS011;65585;51.166;16.922;2023-08-08T07:18:28;2.63;;;1.60;;
76667;SDS011;65585;51.166;16.922;2023-08-08T07:20:55;3.80;;;1.75;;
76667;SDS011;65585;51.166;16.922;2023-08-08T07:23:22;2.33;;;1.33;;
76667;SDS011;65585;51.166;16.922;2023-08-08T07:25:48;1.95;;;1.40;;
76667;SDS011;65585;51.166;16.922;2023-08-08T07:28:14;4.10;;;1.60;;
76667;SDS011;65585;51.166;16.922;2023-08-08T07:30:40;2.85;;;1.67;;
76667;SDS011;65585;51.166;16.922;2023-08-08T07:33:07;2.92;;;1.52;;
76667;SDS011;65585;51.166;16.922;2023-08-08T07:35:36;1.73;;;1.40;;
76667;SDS011;65585;51.166;16.922;2023-08-08T07:38:01;1.52;;;1.25;;
76667;SDS011;65585;51.166;16.922;2023-08-08T07:40:28;2.30;;;1.50;;
76667;SDS011;65585;51.166;16.922;2023-08-08T07:42:53;3.50;;;1.30;;
76667;SDS011;65585;51.166;16.922;2023-08-08T07:45:20;3.55;;;1.50;;
76667;SDS011;65585;51.166;16.922;2023-08-08T07:47:46;2.80;;;1.52;;
76667;SDS011;65585;51.166;16.922;2023-08-08T07:50:12;2.03;;;1.30;;
76667;SDS011;65585;51.166;16.922;2023-08-08T07:52:38;2.03;;;1.33;;
76667;SDS011;65585;51.166;16.922;2023-08-08T07:55:05;3.10;;;1.35;;
76667;SDS011;65585;51.166;16.922;2023-08-08T07:57:31;2.65;;;1.60;;
76667;SDS011;65585;51.166;16.922;2023-08-08T08:00:01;3.22;;;1.23;;
76667;SDS011;65585;51.166;16.922;2023-08-08T08:02:33;1.58;;;1.25;;
76667;SDS011;65585;51.166;16.922;2023-08-08T08:04:59;3.22;;;1.45;;
76667;SDS011;65585;51.166;16.922;2023-08-08T08:07:25;2.22;;;1.50;;
76667;SDS011;65585;51.166;16.922;2023-08-08T08:09:51;2.28;;;1.60;;
76667;SDS011;65585;51.166;16.922;2023-08-08T08:12:17;3.30;;;1.50;;
76667;SDS011;65585;51.166;16.922;2023-08-08T08:14:43;2.30;;;1.35;;
76667;SDS011;65585;51.166;16.922;2023-08-08T08:17:09;3.67;;;1.92;;
76667;SDS011;65585;51.166;16.922;2023-08-08T08:19:35;2.28;;;1.45;;
76667;SDS011;65585;51.166;16.922;2023-08-08T08:22:01;2.53;;;1.40;;
76667;SDS011;65585;51.166;16.922;2023-08-08T08:24:28;2.70;;;1.40;;
76667;SDS011;65585;51.166;16.922;2023-08-08T08:26:53;3.45;;;1.45;;
76667;SDS011;65585;51.166;16.922;2023-08-08T08:29:20;3.90;;;1.40;;
76667;SDS011;65585;51.166;16.922;2023-08-08T08:31:45;2.63;;;1.40;;
76667;SDS011;65585;51.166;16.922;2023-08-08T08:34:12;5.72;;;1.70;;
76667;SDS011;65585;51.166;16.922;2023-08-08T08:36:37;5.55;;;1.63;;
76667;SDS011;65585;51.166;16.922;2023-08-08T08:39:04;2.67;;;1.40;;
76667;SDS011;65585;51.166;16.922;2023-08-08T08:41:30;2.03;;;1.40;;
76667;SDS011;65585;51.166;16.922;2023-08-08T08:43:57;3.40;;;1.60;;
76667;SDS011;65585;51.166;16.922;2023-08-08T08:46:25;3.47;;;1.58;;
76667;SDS011;65585;51.166;16.922;2023-08-08T08:48:53;2.28;;;1.67;;
76667;SDS011;65585;51.166;16.922;2023-08-08T08:51:20;4.30;;;1.63;;
76667;SDS011;65585;51.166;16.922;2023-08-08T08:53:47;4.25;;;1.80;;
76667;SDS011;65585;51.166;16.922;2023-08-08T08:56:13;2.85;;;1.60;;
76667;SDS011;65585;51.166;16.922;2023-08-08T08:58:40;3.28;;;1.65;;
76667;SDS011;65585;51.166;16.922;2023-08-08T09:01:07;3.97;;;1.63;;
76667;SDS011;65585;51.166;16.922;2023-08-08T09:03:34;2.63;;;1.65;;
76667;SDS011;65585;51.166;16.922;2023-08-08T09:06:00;1.75;;;1.35;;
76667;SDS011;65585;51.166;16.922;2023-08-08T09:08:27;1.80;;;1.15;;
76667;SDS011;65585;51.166;16.922;2023-08-08T09:10:52;2.60;;;1.15;;
76667;SDS011;65585;51.166;16.922;2023-08-08T09:13:19;1.83;;;1.38;;
76667;SDS011;65585;51.166;16.922;2023-08-08T09:15:47;1.77;;;1.02;;
76667;SDS011;65585;51.166;16.922;2023-08-08T09:18:14;2.45;;;1.50;;
76667;SDS011;65585;51.166;16.922;2023-08-08T09:20:40;2.10;;;1.30;;
76667;SDS011;65585;51.166;16.922;2023-08-08T09:23:08;1.02;;;0.95;;
76667;SDS011;65585;51.166;16.922;2023-08-08T09:25:34;0.95;;;0.88;;
76667;SDS011;65585;51.166;16.922;2023-08-08T09:28:00;1.55;;;1.17;;
76667;SDS011;65585;51.166;16.922;2023-08-08T09:30:26;3.90;;;1.42;;
76667;SDS011;65585;51.166;16.922;2023-08-08T09:32:53;1.95;;;1.20;;
76667;SDS011;65585;51.166;16.922;2023-08-08T09:35:18;1.80;;;1.30;;
76667;SDS011;65585;51.166;16.922;2023-08-08T09:37:45;1.85;;;1.35;;
76667;SDS011;65585;51.166;16.922;2023-08-08T09:40:11;2.22;;;1.40;;
76667;SDS011;65585;51.166;16.922;2023-08-08T09:42:37;1.42;;;1.00;;
76667;SDS011;65585;51.166;16.922;2023-08-08T09:45:05;1.67;;;1.20;;
76667;SDS011;65585;51.166;16.922;2023-08-08T09:47:31;1.45;;;1.05;;
76667;SDS011;65585;51.166;16.922;2023-08-08T09:50:01;1.20;;;1.00;;
76667;SDS011;65585;51.166;16.922;2023-08-08T09:52:30;1.52;;;1.20;;
76667;SDS011;65585;51.166;16.922;2023-08-08T09:54:56;1.67;;;1.00;;
76667;SDS011;65585;51.166;16.922;2023-08-08T09:57:22;2.72;;;1.15;;
76667;SDS011;65585;51.166;16.922;2023-08-08T09:59:49;1.35;;;1.00;;
76667;SDS011;65585;51.166;16.922;2023-08-08T10:02:15;1.90;;;1.00;;
76667;SDS011;65585;51.166;16.922;2023-08-08T10:04:41;1.50;;;0.88;;
76667;SDS011;65585;51.166;16.922;2023-08-08T10:07:08;1.13;;;1.00;;
76667;SDS011;65585;51.166;16.922;2023-08-08T10:09:34;0.52;;;0.50;;
76667;SDS011;65585;51.166;16.922;2023-08-08T10:12:00;0.80;;;0.68;;
76667;SDS011;65585;51.166;16.922;2023-08-08T10:14:30;1.85;;;0.75;;
76667;SDS011;65585;51.166;16.922;2023-08-08T10:16:57;0.90;;;0.90;;
76667;SDS011;65585;51.166;16.922;2023-08-08T10:19:23;0.82;;;0.65;;
76667;SDS011;65585;51.166;16.922;2023-08-08T10:21:55;0.57;;;0.52;;
76667;SDS011;65585;51.166;16.922;2023-08-08T10:24:21;0.77;;;0.77;;
76667;SDS011;65585;51.166;16.922;2023-08-08T10:26:51;0.93;;;0.68;;
76667;SDS011;65585;51.166;16.922;2023-08-08T10:29:18;1.10;;;1.00;;
76667;SDS011;65585;51.166;16.922;2023-08-08T10:31:52;1.35;;;0.88;;
76667;SDS011;65585;51.166;16.922;2023-08-08T10:34:19;0.55;;;0.55;;
76667;SDS011;65585;51.166;16.922;2023-08-08T10:36:50;1.95;;;1.52;;
76667;SDS011;65585;51.166;16.922;2023-08-08T10:39:19;0.82;;;0.82;;
76667;SDS011;65585;51.166;16.922;2023-08-08T10:41:47;0.95;;;0.95;;
76667;SDS011;65585;51.166;16.922;2023-08-08T10:44:13;1.25;;;0.90;;
76667;SDS011;65585;51.166;16.922;2023-08-08T10:46:47;0.77;;;0.70;;
76667;SDS011;65585;51.166;16.922;2023-08-08T10:49:13;2.40;;;1.48;;
76667;SDS011;65585;51.166;16.922;2023-08-08T10:51:41;1.80;;;1.08;;
76667;SDS011;65585;51.166;16.922;2023-08-08T10:54:16;3.75;;;1.13;;
76667;SDS011;65585;51.166;16.922;2023-08-08T10:56:54;1.20;;;0.90;;
76667;SDS011;65585;51.166;16.922;2023-08-08T10:59:27;2.08;;;1.20;;
76667;SDS011;65585;51.166;16.922;2023-08-08T11:01:56;1.08;;;0.88;;
76667;SDS011;65585;51.166;16.922;2023-08-08T11:04:22;2.00;;;1.02;;
76667;SDS011;65585;51.166;16.922;2023-08-08T11:09:16;1.70;;;0.93;;
76667;SDS011;65585;51.166;16.922;2023-08-08T11:11:43;4.18;;;0.73;;
76667;SDS011;65585;51.166;16.922;2023-08-08T11:14:10;2.40;;;0.82;;
76667;SDS011;65585;51.166;16.922;2023-08-08T11:19:03;0.90;;;0.80;;
76667;SDS011;65585;51.166;16.922;2023-08-08T11:21:29;1.02;;;0.93;;
76667;SDS011;65585;51.166;16.922;2023-08-08T11:23:55;0.82;;;0.60;;
76667;SDS011;65585;51.166;16.922;2023-08-08T11:26:21;0.77;;;0.77;;
76667;SDS011;65585;51.166;16.922;2023-08-08T11:28:50;1.27;;;0.88;;
76667;SDS011;65585;51.166;16.922;2023-08-08T11:31:20;1.52;;;1.23;;
76667;SDS011;65585;51.166;16.922;2023-08-08T11:33:47;0.85;;;0.85;;
76667;SDS011;65585;51.166;16.922;2023-08-08T11:36:14;4.07;;;2.10;;
76667;SDS011;65585;51.166;16.922;2023-08-08T11:38:41;2.50;;;1.95;;
76667;SDS011;65585;51.166;16.922;2023-08-08T11:41:10;3.33;;;1.85;;
76667;SDS011;65585;51.166;16.922;2023-08-08T11:43:37;3.63;;;2.20;;
76667;SDS011;65585;51.166;16.922;2023-08-08T11:46:04;2.78;;;1.88;;
76667;SDS011;65585;51.166;16.922;2023-08-08T11:48:32;2.90;;;2.10;;
76667;SDS011;65585;51.166;16.922;2023-08-08T11:50:58;3.67;;;1.92;;
76667;SDS011;65585;51.166;16.922;2023-08-08T11:53:24;2.92;;;1.83;;
76667;SDS011;65585;51.166;16.922;2023-08-08T11:55:50;3.00;;;1.85;;
76667;SDS011;65585;51.166;16.922;2023-08-08T11:58:16;2.67;;;1.70;;
76667;SDS011;65585;51.166;16.922;2023-08-08T12:00:43;2.33;;;1.85;;
76667;SDS011;65585;51.166;16.922;2023-08-08T12:03:11;2.92;;;2.00;;
76667;SDS011;65585;51.166;16.922;2023-08-08T12:05:40;2.63;;;1.90;;
76667;SDS011;65585;51.166;16.922;2023-08-08T12:08:06;2.65;;;1.95;;
76667;SDS011;65585;51.166;16.922;2023-08-08T12:10:33;2.65;;;1.80;;
76667;SDS011;65585;51.166;16.922;2023-08-08T12:12:59;3.03;;;1.70;;
76667;SDS011;65585;51.166;16.922;2023-08-08T12:15:30;2.40;;;1.70;;
76667;SDS011;65585;51.166;16.922;2023-08-08T12:17:57;4.75;;;1.83;;
76667;SDS011;65585;51.166;16.922;2023-08-08T12:20:26;2.97;;;1.85;;
76667;SDS011;65585;51.166;16.922;2023-08-08T12:22:52;2.50;;;2.00;;
76667;SDS011;65585;51.166;16.922;2023-08-08T12:25:18;2.90;;;1.65;;
76667;SDS011;65585;51.166;16.922;2023-08-08T12:27:44;2.80;;;1.63;;
76667;SDS011;65585;51.166;16.922;2023-08-08T12:30:10;3.00;;;2.35;;
76667;SDS011;65585;51.166;16.922;2023-08-08T12:32:36;2.47;;;1.70;;
76667;SDS011;65585;51.166;16.922;2023-08-08T12:35:02;2.20;;;1.70;;
76667;SDS011;65585;51.166;16.922;2023-08-08T12:37:29;3.03;;;1.90;;
76667;SDS011;65585;51.166;16.922;2023-08-08T12:39:55;2.60;;;1.70;;
76667;SDS011;65585;51.166;16.922;2023-08-08T12:42:22;2.85;;;1.70;;
76667;SDS011;65585;51.166;16.922;2023-08-08T12:44:48;2.45;;;1.65;;
76667;SDS011;65585;51.166;16.922;2023-08-08T12:47:17;4.15;;;1.90;;
76667;SDS011;65585;51.166;16.922;2023-08-08T12:52:10;3.40;;;1.92;;
76667;SDS011;65585;51.166;16.922;2023-08-08T12:54:36;3.00;;;2.30;;
76667;SDS011;65585;51.166;16.922;2023-08-08T12:57:02;3.45;;;2.22;;
76667;SDS011;65585;51.166;16.922;2023-08-08T12:59:28;3.17;;;1.65;;
76667;SDS011;65585;51.166;16.922;2023-08-08T13:01:54;4.25;;;2.17;;
76667;SDS011;65585;51.166;16.922;2023-08-08T13:04:20;4.38;;;1.80;;
76667;SDS011;65585;51.166;16.922;2023-08-08T13:06:49;2.78;;;2.05;;
76667;SDS011;65585;51.166;16.922;2023-08-08T13:09:15;3.55;;;2.00;;
76667;SDS011;65585;51.166;16.922;2023-08-08T13:11:41;3.13;;;1.90;;
76667;SDS011;65585;51.166;16.922;2023-08-08T13:14:08;7.18;;;2.40;;
76667;SDS011;65585;51.166;16.922;2023-08-08T13:16:34;4.88;;;2.00;;
76667;SDS011;65585;51.166;16.922;2023-08-08T13:19:00;4.18;;;2.25;;
76667;SDS011;65585;51.166;16.922;2023-08-08T13:21:27;3.97;;;2.03;;
76667;SDS011;65585;51.166;16.922;2023-08-08T13:23:53;5.68;;;2.50;;
76667;SDS011;65585;51.166;16.922;2023-08-08T13:26:19;3.58;;;2.22;;
76667;SDS011;65585;51.166;16.922;2023-08-08T13:28:45;3.05;;;1.85;;
76667;SDS011;65585;51.166;16.922;2023-08-08T13:31:11;4.30;;;2.00;;
76667;SDS011;65585;51.166;16.922;2023-08-08T13:33:38;3.83;;;1.92;;
76667;SDS011;65585;51.166;16.922;2023-08-08T13:36:04;2.03;;;1.67;;
76667;SDS011;65585;51.166;16.922;2023-08-08T13:38:30;3.00;;;1.98;;
76667;SDS011;65585;51.166;16.922;2023-08-08T13:40:56;2.38;;;1.67;;
76667;SDS011;65585;51.166;16.922;2023-08-08T13:43:22;3.55;;;1.95;;
76667;SDS011;65585;51.166;16.922;2023-08-08T13:45:48;4.45;;;2.10;;
76667;SDS011;65585;51.166;16.922;2023-08-08T13:48:14;4.15;;;2.00;;
76667;SDS011;65585;51.166;16.922;2023-08-08T13:50:40;3.30;;;1.92;;
76667;SDS011;65585;51.166;16.922;2023-08-08T13:53:06;3.92;;;2.00;;
76667;SDS011;65585;51.166;16.922;2023-08-08T13:55:32;4.18;;;2.10;;
76667;SDS011;65585;51.166;16.922;2023-08-08T13:58:04;4.18;;;2.05;;
76667;SDS011;65585;51.166;16.922;2023-08-08T14:00:30;3.05;;;1.70;;
76667;SDS011;65585;51.166;16.922;2023-08-08T14:02:57;2.10;;;1.73;;
76667;SDS011;65585;51.166;16.922;2023-08-08T14:05:24;3.28;;;1.70;;
76667;SDS011;65585;51.166;16.922;2023-08-08T14:07:50;3.88;;;2.20;;
76667;SDS011;65585;51.166;16.922;2023-08-08T14:10:16;2.15;;;1.60;;
76667;SDS011;65585;51.166;16.922;2023-08-08T14:12:42;2.90;;;1.92;;
76667;SDS011;65585;51.166;16.922;2023-08-08T14:15:09;2.83;;;1.80;;
76667;SDS011;65585;51.166;16.922;2023-08-08T14:17:35;3.58;;;1.80;;
76667;SDS011;65585;51.166;16.922;2023-08-08T14:20:01;2.92;;;2.10;;
76667;SDS011;65585;51.166;16.922;2023-08-08T14:22:27;2.78;;;1.88;;
76667;SDS011;65585;51.166;16.922;2023-08-08T14:24:53;2.90;;;1.65;;
76667;SDS011;65585;51.166;16.922;2023-08-08T14:27:19;3.38;;;1.90;;
76667;SDS011;65585;51.166;16.922;2023-08-08T14:29:45;3.10;;;1.98;;
76667;SDS011;65585;51.166;16.922;2023-08-08T14:32:11;3.00;;;1.52;;
76667;SDS011;65585;51.166;16.922;2023-08-08T14:34:37;2.30;;;1.85;;
76667;SDS011;65585;51.166;16.922;2023-08-08T14:37:04;3.15;;;2.05;;
76667;SDS011;65585;51.166;16.922;2023-08-08T14:39:30;2.50;;;1.98;;
76667;SDS011;65585;51.166;16.922;2023-08-08T14:41:56;2.90;;;1.90;;
76667;SDS011;65585;51.166;16.922;2023-08-08T14:44:22;3.45;;;2.22;;
76667;SDS011;65585;51.166;16.922;2023-08-08T14:46:48;3.90;;;1.92;;